Time;durP1;ratioP1;P1;durP2;ratioP2;P2;SDS_P1;SDS_P2;PMS_P1;PMS_P2;Temp;Humidity;BMP_temperature;BMP_pressure;BME280_temperature;BME280_humidity;BME280_pressure;Samples;Min_cycle;Max_cycle;Signal;HPM_P1;HPM_P2
2023/03/09 00:01:30;;;;;;;15.20;3.63;;;25.20;30.00;;;;;;5072538;28;20076;-70
2023/03/09 00:03:57;;;;;;;18.52;4.10;;;25.10;30.20;;;;;;5072042;28;20095;-65
2023/03/09 00:06:24;;;;;;;24.70;4.18;;;25.30;31.00;;;;;;5074362;28;20114;-66
2023/03/09 00:08:51;;;;;;;14.70;3.58;;;25.60;30.70;;;;;;5074340;28;20091;-69
2023/03/09 00:11:19;;;;;;;11.63;2.92;;;25.80;31.00;;;;;;5072855;28;20092;-65
2023/03/09 00:13:47;;;;;;;14.70;3.05;;;25.60;30.30;;;;;;5075203;28;20429;-67
2023/03/09 00:16:19;;;;;;;26.20;3.47;;;25.70;30.10;;;;;;5073194;28;20470;-66
2023/03/09 00:18:45;;;;;;;15.30;3.47;;;25.80;30.10;;;;;;5074106;28;20094;-65
2023/03/09 00:21:33;;;;;;;18.40;3.03;;;25.80;30.40;;;;;;5075356;28;20071;-66
2023/03/09 00:23:58;;;;;;;16.45;2.80;;;25.80;30.70;;;;;;5075544;28;20435;-64
2023/03/09 00:26:25;;;;;;;14.18;3.65;;;25.80;30.90;;;;;;5072540;28;20098;-66
2023/03/09 00:28:51;;;;;;;12.20;2.38;;;25.70;31.60;;;;;;5052450;28;20214;-65
2023/03/09 00:31:18;;;;;;;13.57;2.70;;;25.70;31.50;;;;;;5073796;28;20516;-63
2023/03/09 00:33:47;;;;;;;8.70;2.40;;;25.50;31.40;;;;;;5072851;28;20120;-64
2023/03/09 00:36:15;;;;;;;10.38;2.50;;;25.50;32.00;;;;;;5071171;28;20077;-65
2023/03/09 00:38:41;;;;;;;16.15;3.22;;;25.60;32.10;;;;;;5071908;28;20088;-65
2023/03/09 00:41:07;;;;;;;8.55;2.80;;;25.50;32.30;;;;;;5073695;28;20102;-64
2023/03/09 00:43:34;;;;;;;9.95;2.35;;;25.40;32.20;;;;;;5073263;28;20064;-66
2023/03/09 00:46:00;;;;;;;17.30;2.90;;;25.20;32.40;;;;;;5072571;28;20443;-65
2023/03/09 00:48:27;;;;;;;20.65;2.80;;;25.10;32.80;;;;;;5072751;28;20083;-67
2023/03/09 00:50:53;;;;;;;17.17;3.08;;;25.00;32.80;;;;;;5072672;28;20095;-66
2023/03/09 00:53:19;;;;;;;9.32;2.67;;;24.90;32.50;;;;;;5074494;28;20155;-66
2023/03/09 00:55:46;;;;;;;11.25;2.47;;;24.90;32.70;;;;;;5071854;28;20064;-66
2023/03/09 00:58:12;;;;;;;10.30;2.30;;;24.80;33.10;;;;;;5072740;28;20080;-65
2023/03/09 01:00:39;;;;;;;13.23;2.80;;;24.60;32.90;;;;;;5071273;28;20162;-67
2023/03/09 01:03:05;;;;;;;11.52;2.70;;;24.40;32.90;;;;;;5072046;28;20436;-67
2023/03/09 01:05:31;;;;;;;17.98;3.85;;;24.30;33.10;;;;;;5069967;28;20121;-65
2023/03/09 01:07:58;;;;;;;16.17;3.50;;;24.40;33.40;;;;;;5071342;28;20553;-65
2023/03/09 01:10:25;;;;;;;15.75;4.18;;;24.30;33.60;;;;;;5072947;28;20076;-67
2023/03/09 01:12:51;;;;;;;14.60;3.42;;;24.40;34.20;;;;;;5073255;28;20135;-67
2023/03/09 01:15:17;;;;;;;13.40;3.38;;;24.30;33.60;;;;;;5071915;28;20064;-67
2023/03/09 01:17:44;;;;;;;14.13;3.22;;;24.20;33.40;;;;;;5072239;28;20071;-66
2023/03/09 01:20:11;;;;;;;16.67;3.03;;;24.10;33.60;;;;;;5072041;28;20525;-67
2023/03/09 01:22:38;;;;;;;12.50;2.38;;;24.00;33.90;;;;;;5072506;28;20462;-66
2023/03/09 01:25:05;;;;;;;19.17;3.15;;;24.00;34.10;;;;;;5073429;28;20099;-65
2023/03/09 01:27:31;;;;;;;24.45;2.47;;;23.80;33.40;;;;;;5070593;28;20104;-67
2023/03/09 01:29:57;;;;;;;22.85;2.80;;;23.70;33.60;;;;;;5071823;28;20084;-67
2023/03/09 01:32:25;;;;;;;18.90;2.92;;;23.70;34.00;;;;;;5071616;28;20084;-67
2023/03/09 01:34:52;;;;;;;14.25;2.50;;;23.60;33.70;;;;;;5073006;28;20577;-69
2023/03/09 01:37:19;;;;;;;17.55;3.70;;;23.50;34.30;;;;;;5072318;28;20151;-67
2023/03/09 01:39:45;;;;;;;15.93;2.50;;;23.30;34.40;;;;;;5071330;28;20500;-66
2023/03/09 01:42:12;;;;;;;17.40;3.17;;;23.20;34.80;;;;;;5071771;28;20072;-67
2023/03/09 01:44:38;;;;;;;17.95;3.65;;;23.10;34.70;;;;;;5069954;28;20076;-67
2023/03/09 01:47:05;;;;;;;19.83;3.30;;;23.00;35.30;;;;;;5070337;28;20151;-67
2023/03/09 01:49:43;;;;;;;21.27;3.22;;;22.80;35.70;;;;;;5071113;28;20545;-68
2023/03/09 01:52:24;;;;;;;13.40;3.17;;;22.70;36.60;;;;;;5071106;28;20286;-67
2023/03/09 01:55:01;;;;;;;15.80;3.15;;;22.60;36.80;;;;;;5072425;28;20056;-68
2023/03/09 01:57:39;;;;;;;29.33;4.00;;;22.50;36.70;;;;;;5073666;28;20754;-67
2023/03/09 02:00:11;;;;;;;17.05;2.58;;;22.40;37.80;;;;;;5072112;28;20084;-66
2023/03/09 02:02:41;;;;;;;11.07;2.90;;;22.30;36.40;;;;;;5071287;28;20138;-66
2023/03/09 02:05:16;;;;;;;8.00;2.47;;;22.30;35.90;;;;;;5070510;28;20137;-65
2023/03/09 02:07:46;;;;;;;25.27;2.67;;;22.20;35.90;;;;;;5071376;28;20091;-65
2023/03/09 02:10:21;;;;;;;23.17;3.35;;;22.10;36.20;;;;;;5070627;28;20147;-65
2023/03/09 02:12:54;;;;;;;19.90;3.35;;;22.00;37.30;;;;;;5070377;28;20250;-66
2023/03/09 02:15:22;;;;;;;10.15;2.70;;;21.80;36.90;;;;;;5070897;28;20087;-67
2023/03/09 02:17:49;;;;;;;19.58;2.55;;;21.80;36.30;;;;;;5073716;28;20091;-67
2023/03/09 02:20:31;;;;;;;13.02;3.40;;;21.80;36.20;;;;;;5076179;28;20079;-66
2023/03/09 02:22:58;;;;;;;15.68;3.47;;;21.70;36.80;;;;;;5074793;28;20413;-69
2023/03/09 02:25:47;;;;;;;10.00;3.30;;;21.70;37.00;;;;;;5075057;28;20072;-67
2023/03/09 02:28:14;;;;;;;12.75;3.83;;;21.50;36.60;;;;;;5073845;28;20098;-64
2023/03/09 02:30:44;;;;;;;13.40;3.25;;;21.50;36.80;;;;;;5055680;28;20080;-66
2023/03/09 02:33:25;;;;;;;16.98;3.58;;;21.50;37.50;;;;;;5074873;28;20106;-67
2023/03/09 02:35:55;;;;;;;14.80;3.47;;;21.50;37.60;;;;;;5075831;28;20072;-66
2023/03/09 02:38:22;;;;;;;14.90;3.17;;;21.40;38.30;;;;;;5074438;28;20495;-66
2023/03/09 02:40:51;;;;;;;9.60;2.65;;;21.30;38.80;;;;;;5075915;28;20112;-66
2023/03/09 02:43:26;;;;;;;13.95;2.60;;;21.20;37.60;;;;;;5076951;28;20504;-67
2023/03/09 02:45:52;;;;;;;10.90;2.58;;;21.10;38.20;;;;;;5075018;28;20080;-67
2023/03/09 02:48:18;;;;;;;15.55;3.17;;;21.10;37.80;;;;;;5075711;28;20083;-63
2023/03/09 02:50:45;;;;;;;14.52;2.47;;;21.00;37.30;;;;;;5076788;28;20130;-66
2023/03/09 02:53:12;;;;;;;17.42;3.40;;;21.00;37.70;;;;;;5076228;28;20099;-66
2023/03/09 02:55:38;;;;;;;9.55;2.25;;;20.90;38.70;;;;;;5077666;28;20094;-63
2023/03/09 02:58:05;;;;;;;10.35;2.00;;;20.80;38.70;;;;;;5072199;28;20072;-67
2023/03/09 03:00:31;;;;;;;16.55;2.45;;;20.70;37.80;;;;;;5071813;28;20084;-64
2023/03/09 03:02:58;;;;;;;9.88;1.70;;;20.70;38.10;;;;;;5071405;28;20095;-67
2023/03/09 03:05:24;;;;;;;13.23;1.95;;;20.70;39.20;;;;;;5074648;28;20104;-65
2023/03/09 03:07:51;;;;;;;5.32;1.73;;;20.60;38.80;;;;;;5072373;28;20162;-66
2023/03/09 03:10:18;;;;;;;7.82;2.70;;;20.70;38.50;;;;;;5073997;28;20088;-67
2023/03/09 03:12:45;;;;;;;13.00;2.03;;;20.60;39.10;;;;;;5072958;28;20157;-65
2023/03/09 03:15:12;;;;;;;14.27;2.35;;;20.50;38.80;;;;;;5075356;28;20068;-64
2023/03/09 03:17:38;;;;;;;12.60;2.50;;;20.50;39.20;;;;;;5075677;28;20072;-65
2023/03/09 03:20:11;;;;;;;11.32;2.00;;;20.40;39.30;;;;;;5076538;28;20072;-67
2023/03/09 03:22:38;;;;;;;8.13;1.98;;;20.30;39.50;;;;;;5072570;28;20086;-65
2023/03/09 03:25:05;;;;;;;12.07;2.20;;;20.20;40.10;;;;;;5074458;28;20072;-65
2023/03/09 03:27:32;;;;;;;16.58;2.25;;;20.20;40.40;;;;;;5073489;28;20155;-64
2023/03/09 03:30:00;;;;;;;10.23;1.98;;;20.20;40.80;;;;;;5071493;28;20441;-67
2023/03/09 03:32:27;;;;;;;14.80;2.50;;;20.10;40.80;;;;;;5072919;28;20155;-64
2023/03/09 03:34:53;;;;;;;31.63;11.85;;;20.10;41.10;;;;;;5075961;28;20477;-63
2023/03/09 03:37:20;;;;;;;28.25;12.07;;;20.10;40.80;;;;;;5054997;28;20414;-64
2023/03/09 03:39:46;;;;;;;26.98;10.98;;;20.10;40.60;;;;;;5073766;28;20120;-64
2023/03/09 03:42:13;;;;;;;29.15;11.50;;;20.00;40.80;;;;;;5073775;28;20557;-63
2023/03/09 03:44:39;;;;;;;31.35;11.13;;;20.00;40.80;;;;;;5072868;28;20141;-64
2023/03/09 03:47:06;;;;;;;31.88;11.45;;;20.00;40.60;;;;;;5074417;28;20088;-66
2023/03/09 03:49:32;;;;;;;26.30;9.70;;;20.00;40.70;;;;;;5073592;28;20197;-64
2023/03/09 03:51:59;;;;;;;12.02;1.98;;;20.00;40.80;;;;;;5072395;28;20074;-64
2023/03/09 03:54:25;;;;;;;7.70;2.10;;;19.90;40.50;;;;;;5073958;28;20076;-66
2023/03/09 03:56:52;;;;;;;10.30;1.90;;;19.90;40.70;;;;;;5074977;28;20080;-65
2023/03/09 03:59:18;;;;;;;17.65;2.40;;;19.80;41.20;;;;;;5073903;28;20440;-65
2023/03/09 04:01:45;;;;;;;10.75;2.35;;;19.80;41.70;;;;;;5073583;28;20088;-67
2023/03/09 04:04:11;;;;;;;16.60;2.70;;;19.80;42.00;;;;;;5072584;28;20072;-64
2023/03/09 04:06:37;;;;;;;13.18;2.72;;;19.70;42.60;;;;;;5070703;28;20181;-66
2023/03/09 04:09:04;;;;;;;12.77;3.15;;;19.60;42.70;;;;;;5073709;28;20121;-65
2023/03/09 04:11:31;;;;;;;14.82;3.08;;;19.60;42.90;;;;;;5070950;28;20091;-66
2023/03/09 04:13:57;;;;;;;12.13;2.80;;;19.40;42.80;;;;;;5071732;28;20513;-67
2023/03/09 04:16:24;;;;;;;13.90;2.72;;;19.40;43.10;;;;;;5072074;28;20275;-63
2023/03/09 04:18:50;;;;;;;6.30;2.17;;;19.40;43.30;;;;;;5074037;28;20071;-65
2023/03/09 04:21:17;;;;;;;14.52;2.97;;;19.30;43.60;;;;;;5072443;28;20436;-66
2023/03/09 04:23:43;;;;;;;17.23;2.40;;;19.30;44.20;;;;;;5071237;28;20088;-66
2023/03/09 04:26:11;;;;;;;23.95;4.20;;;19.10;44.20;;;;;;5071290;28;20064;-65
2023/03/09 04:28:37;;;;;;;24.42;4.28;;;19.00;44.50;;;;;;5072475;28;20186;-65
2023/03/09 04:31:04;;;;;;;19.48;4.68;;;18.90;45.20;;;;;;5072202;28;20067;-63
2023/03/09 04:33:30;;;;;;;23.17;3.78;;;18.70;45.60;;;;;;5071464;28;20580;-63
2023/03/09 04:35:56;;;;;;;17.48;3.97;;;18.70;46.00;;;;;;5072656;28;20103;-64
2023/03/09 04:38:23;;;;;;;17.15;3.45;;;18.70;45.90;;;;;;5073125;28;20071;-62
2023/03/09 04:40:49;;;;;;;15.63;3.53;;;18.70;46.20;;;;;;5070868;28;20557;-64
2023/03/09 04:43:16;;;;;;;15.30;3.75;;;18.60;46.40;;;;;;5071095;28;20079;-63
2023/03/09 04:45:42;;;;;;;13.88;2.70;;;18.60;46.10;;;;;;5071606;28;20190;-62
2023/03/09 04:48:08;;;;;;;17.65;3.00;;;18.60;45.70;;;;;;5073601;28;20072;-65
2023/03/09 04:50:35;;;;;;;14.52;2.45;;;18.50;46.20;;;;;;5071777;28;20146;-65
2023/03/09 04:53:01;;;;;;;20.15;2.75;;;18.50;46.70;;;;;;5071215;28;20428;-64
2023/03/09 04:55:28;;;;;;;19.38;2.88;;;18.30;47.10;;;;;;5073202;28;20475;-64
2023/03/09 04:57:54;;;;;;;14.23;2.85;;;18.30;47.10;;;;;;5075321;28;20559;-64
2023/03/09 05:00:21;;;;;;;18.92;3.45;;;18.10;47.00;;;;;;5073284;28;20071;-63
2023/03/09 05:02:47;;;;;;;26.60;4.15;;;18.10;47.50;;;;;;5071690;28;20070;-66
2023/03/09 05:05:16;;;;;;;22.85;5.68;;;18.00;47.90;;;;;;5071621;28;20117;-64
2023/03/09 05:07:43;;;;;;;26.67;6.55;;;18.00;48.60;;;;;;5072140;28;21768;-63
2023/03/09 05:10:10;;;;;;;17.17;4.32;;;17.90;47.90;;;;;;5074876;28;20089;-65
2023/03/09 05:12:36;;;;;;;14.60;3.67;;;17.90;47.80;;;;;;5071574;28;20087;-63
2023/03/09 05:15:03;;;;;;;22.00;3.88;;;17.90;48.00;;;;;;5072069;28;20075;-64
2023/03/09 05:17:30;;;;;;;22.35;3.72;;;17.80;48.50;;;;;;5070780;28;20072;-64
2023/03/09 05:19:57;;;;;;;22.02;3.75;;;17.80;49.00;;;;;;5071573;28;20099;-65
2023/03/09 05:22:23;;;;;;;21.00;3.80;;;17.70;49.00;;;;;;5072923;28;20158;-62
2023/03/09 05:24:50;;;;;;;15.68;3.88;;;17.60;49.50;;;;;;5072322;28;20073;-62
2023/03/09 05:27:16;;;;;;;15.63;3.47;;;17.60;49.40;;;;;;5069700;28;20126;-65
2023/03/09 05:29:43;;;;;;;20.75;3.65;;;17.50;49.60;;;;;;5071342;28;20444;-64
2023/03/09 05:32:09;;;;;;;21.75;4.15;;;17.40;49.70;;;;;;5072061;28;20070;-64
2023/03/09 05:34:36;;;;;;;19.80;5.53;;;17.30;49.70;;;;;;5070867;28;20076;-65
2023/03/09 05:37:03;;;;;;;25.65;4.45;;;17.30;49.50;;;;;;5072416;28;21056;-66
2023/03/09 05:39:29;;;;;;;33.08;5.15;;;17.20;49.40;;;;;;5072151;28;20068;-67
2023/03/09 05:41:56;;;;;;;28.55;4.03;;;17.20;49.50;;;;;;5072652;28;20410;-66
2023/03/09 05:44:23;;;;;;;28.60;3.53;;;17.20;49.80;;;;;;5069126;28;20124;-65
2023/03/09 05:46:49;;;;;;;16.65;4.57;;;17.10;49.50;;;;;;5068473;28;20080;-66
2023/03/09 05:49:15;;;;;;;19.65;5.32;;;17.10;48.90;;;;;;5071926;28;20555;-65
2023/03/09 05:51:42;;;;;;;16.63;4.45;;;17.00;49.60;;;;;;5074127;28;20081;-64
2023/03/09 05:54:08;;;;;;;32.95;5.28;;;17.10;49.60;;;;;;5073943;28;20495;-64
2023/03/09 05:56:35;;;;;;;19.67;4.85;;;17.00;49.50;;;;;;5075029;28;20076;-65
2023/03/09 05:59:01;;;;;;;27.90;4.95;;;17.00;51.10;;;;;;5076430;28;20142;-65
2023/03/09 06:01:29;;;;;;;28.52;5.60;;;16.90;51.20;;;;;;5074106;28;20078;-66
2023/03/09 06:03:56;;;;;;;27.23;4.93;;;16.80;51.10;;;;;;5075105;28;20139;-66
2023/03/09 06:06:22;;;;;;;20.63;4.55;;;16.60;51.20;;;;;;5073693;28;20180;-64
2023/03/09 06:08:49;;;;;;;18.25;4.82;;;16.50;51.90;;;;;;5072805;28;20089;-67
2023/03/09 06:11:15;;;;;;;27.17;5.25;;;16.50;51.40;;;;;;5072300;28;20077;-67
2023/03/09 06:13:42;;;;;;;26.20;5.55;;;16.50;51.50;;;;;;5075376;28;20092;-67
2023/03/09 06:16:15;;;;;;;25.42;5.15;;;16.40;51.00;;;;;;5071472;28;20073;-66
2023/03/09 06:18:43;;;;;;;22.25;5.22;;;16.40;51.00;;;;;;5075164;28;20162;-64
2023/03/09 06:21:10;;;;;;;24.48;5.35;;;16.40;51.10;;;;;;5074653;28;20069;-64
2023/03/09 06:23:36;;;;;;;27.38;5.72;;;16.40;52.20;;;;;;5074844;28;20261;-64
2023/03/09 06:26:05;;;;;;;28.90;5.20;;;16.40;51.60;;;;;;5073955;28;20166;-65
2023/03/09 06:28:33;;;;;;;28.95;5.22;;;16.20;51.00;;;;;;5074387;28;20084;-65
2023/03/09 06:31:00;;;;;;;22.90;5.70;;;16.20;50.50;;;;;;5072023;28;20107;-65
2023/03/09 06:33:26;;;;;;;16.98;4.55;;;16.20;49.80;;;;;;5073303;28;20142;-66
2023/03/09 06:35:52;;;;;;;26.67;6.50;;;16.20;50.20;;;;;;5078010;28;20088;-64
2023/03/09 06:38:19;;;;;;;31.48;6.88;;;16.10;50.50;;;;;;5075185;28;20111;-65
2023/03/09 06:40:45;;;;;;;24.92;7.25;;;16.10;50.00;;;;;;5073332;28;20144;-65
2023/03/09 06:43:12;;;;;;;19.70;5.47;;;16.10;50.50;;;;;;5075843;28;20167;-65
2023/03/09 06:45:38;;;;;;;29.05;5.85;;;16.10;50.10;;;;;;5075086;28;20122;-66
2023/03/09 06:48:04;;;;;;;19.38;4.80;;;16.00;49.80;;;;;;5073583;28;20108;-64
2023/03/09 06:50:31;;;;;;;21.00;4.05;;;16.00;49.80;;;;;;5072872;28;20543;-65
2023/03/09 06:52:57;;;;;;;29.63;4.45;;;15.90;50.10;;;;;;5072593;28;20159;-65
2023/03/09 06:55:24;;;;;;;16.35;3.33;;;15.80;49.60;;;;;;5073165;28;20077;-64
2023/03/09 06:57:50;;;;;;;21.45;3.67;;;15.80;49.40;;;;;;5075990;28;20088;-65
2023/03/09 07:00:17;;;;;;;12.65;3.22;;;15.80;49.80;;;;;;5075664;28;20170;-65
2023/03/09 07:02:43;;;;;;;23.77;4.00;;;15.60;50.50;;;;;;5070999;28;20069;-65
2023/03/09 07:05:10;;;;;;;17.83;3.33;;;15.60;50.20;;;;;;5072710;28;20111;-63
2023/03/09 07:07:36;;;;;;;17.33;3.83;;;15.60;49.90;;;;;;5073826;28;20601;-69
2023/03/09 07:10:04;;;;;;;15.82;3.83;;;15.50;50.40;;;;;;5072679;28;20453;-66
2023/03/09 07:12:30;;;;;;;18.30;3.08;;;15.50;50.00;;;;;;5074409;28;20076;-63
2023/03/09 07:14:57;;;;;;;21.27;3.22;;;15.50;50.30;;;;;;5072585;28;20073;-64
2023/03/09 07:17:23;;;;;;;80.18;15.95;;;15.40;50.90;;;;;;5074048;28;20546;-65
2023/03/09 07:19:52;;;;;;;104.72;15.90;;;15.40;51.90;;;;;;5072768;28;20530;-64
2023/03/09 07:22:18;;;;;;;130.90;12.65;;;15.40;52.00;;;;;;5072587;28;20085;-66
2023/03/09 07:24:44;;;;;;;35.90;8.70;;;15.40;51.90;;;;;;5072350;28;20065;-65
2023/03/09 07:27:11;;;;;;;;;;;15.40;51.00;;;;;;5073361;28;20096;-64
2023/03/09 07:29:40;;;;;;;39.08;4.95;;;15.30;51.30;;;;;;5071451;28;19979;-66
2023/03/09 07:32:07;;;;;;;20.83;4.00;;;15.30;51.60;;;;;;5071292;28;20069;-64
2023/03/09 07:34:34;;;;;;;53.47;5.18;;;15.20;51.20;;;;;;5072108;28;20073;-64
2023/03/09 07:37:00;;;;;;;36.00;4.55;;;15.20;52.10;;;;;;5070502;28;20167;-66
2023/03/09 07:39:27;;;;;;;34.38;5.07;;;15.20;52.00;;;;;;5071930;28;20080;-63
2023/03/09 07:41:54;;;;;;;36.67;5.82;;;15.20;52.40;;;;;;5070691;28;20617;-63
2023/03/09 07:44:20;;;;;;;;;;;15.20;52.80;;;;;;5071856;28;20103;-64
2023/03/09 07:46:47;;;;;;;37.65;5.30;;;15.20;52.60;;;;;;5070524;28;19983;-62
2023/03/09 07:49:14;;;;;;;27.63;4.60;;;15.20;52.50;;;;;;5072526;28;20089;-63
2023/03/09 07:51:40;;;;;;;23.25;4.13;;;15.20;52.80;;;;;;5054671;28;20436;-61
2023/03/09 07:54:06;;;;;;;;;;;15.10;52.20;;;;;;5072959;28;20076;-65
2023/03/09 07:56:33;;;;;;;18.45;3.50;;;15.10;51.90;;;;;;5052108;28;19999;-64
2023/03/09 07:59:00;;;;;;;28.05;3.72;;;14.90;51.70;;;;;;5072947;28;20087;-64
2023/03/09 08:01:27;;;;;;;;;;;14.80;51.90;;;;;;5073521;28;20087;-66
2023/03/09 08:03:53;;;;;;;15.18;3.72;;;14.70;52.90;;;;;;5071203;28;19957;-66
2023/03/09 08:06:20;;;;;;;18.95;3.45;;;14.70;53.30;;;;;;5073769;28;20573;-63
2023/03/09 08:08:46;;;;;;;;;;;14.70;53.50;;;;;;5073602;28;20097;-65
2023/03/09 08:11:13;;;;;;;24.63;3.85;;;14.70;53.90;;;;;;5071089;28;19969;-66
2023/03/09 08:13:39;;;;;;;13.90;3.40;;;14.70;54.30;;;;;;5072753;28;20077;-66
2023/03/09 08:16:10;;;;;;;16.52;3.65;;;14.70;54.30;;;;;;5074813;28;20088;-64
2023/03/09 08:18:36;;;;;;;26.95;3.65;;;14.70;55.00;;;;;;5074794;28;20077;-64
2023/03/09 08:21:03;;;;;;;;;;;14.70;54.90;;;;;;5073153;28;20066;-64
2023/03/09 08:23:29;;;;;;;13.30;3.80;;;14.50;55.60;;;;;;5070339;28;20003;-65
2023/03/09 08:25:56;;;;;;;12.30;3.72;;;14.50;54.40;;;;;;5072275;28;20080;-67
2023/03/09 08:28:22;;;;;;;;;;;14.40;54.30;;;;;;5072058;28;20174;-64
2023/03/09 08:30:49;;;;;;;16.08;4.55;;;14.30;54.70;;;;;;5067797;28;20521;-63
2023/03/09 08:33:16;;;;;;;23.55;4.72;;;14.30;55.20;;;;;;5072666;28;20081;-64
2023/03/09 08:35:42;;;;;;;;;;;14.30;55.10;;;;;;5070791;28;20072;-65
2023/03/09 08:38:08;;;;;;;14.55;4.20;;;14.30;55.10;;;;;;5071116;28;20483;-64
2023/03/09 08:40:38;;;;;;;;;;;14.30;55.30;;;;;;5070912;28;20504;-64
2023/03/09 08:43:05;;;;;;;13.02;3.78;;;14.20;55.80;;;;;;5070578;28;19980;-65
2023/03/09 08:45:31;;;;;;;15.82;3.63;;;14.20;56.10;;;;;;5072055;28;20065;-65
2023/03/09 08:47:58;;;;;;;21.20;3.85;;;14.10;55.90;;;;;;5071923;28;20077;-65
2023/03/09 08:50:24;;;;;;;13.65;4.25;;;14.10;56.20;;;;;;5071305;28;20162;-61
2023/03/09 08:52:51;;;;;;;20.70;4.20;;;14.00;55.90;;;;;;5056566;28;20081;-66
2023/03/09 08:55:20;;;;;;;;;;;14.00;56.00;;;;;;5069425;28;20167;-64
2023/03/09 08:57:46;;;;;;;15.57;4.47;;;14.00;56.30;;;;;;5070413;28;19960;-64
2023/03/09 09:00:14;;;;;;;17.13;4.13;;;14.00;55.90;;;;;;5072571;28;20072;-63
2023/03/09 09:02:41;;;;;;;19.27;4.20;;;13.90;56.90;;;;;;5070638;28;20073;-64
2023/03/09 09:05:08;;;;;;;18.65;4.13;;;14.00;56.30;;;;;;5069235;28;20113;-65
2023/03/09 09:07:35;;;;;;;18.92;3.90;;;13.90;56.20;;;;;;5068623;28;20184;-65
2023/03/09 09:10:01;;;;;;;21.08;4.03;;;13.80;56.00;;;;;;5069162;28;20084;-65
2023/03/09 09:12:32;;;;;;;13.82;3.53;;;13.80;56.70;;;;;;5067488;28;20534;-67
2023/03/09 09:15:02;;;;;;;22.38;3.97;;;13.80;56.20;;;;;;5065103;28;20077;-65
2023/03/09 09:17:28;;;;;;;18.88;3.97;;;13.80;56.70;;;;;;5069474;28;20438;-64
2023/03/09 09:19:54;;;;;;;17.73;4.15;;;13.80;56.60;;;;;;5052841;28;20139;-66
2023/03/09 09:22:21;;;;;;;14.73;3.80;;;13.80;56.70;;;;;;5070541;28;20132;-64
2023/03/09 09:24:49;;;;;;;17.63;4.38;;;13.80;57.40;;;;;;5050761;28;20085;-67
2023/03/09 09:27:15;;;;;;;17.17;4.20;;;13.80;57.00;;;;;;5049664;28;20119;-66
2023/03/09 09:29:41;;;;;;;;;;;13.80;57.80;;;;;;5074358;28;20088;-66
2023/03/09 09:32:08;;;;;;;19.13;4.40;;;13.60;58.50;;;;;;5075230;28;19957;-64
2023/03/09 09:34:35;;;;;;;18.52;4.18;;;13.50;57.90;;;;;;5073915;28;20081;-65
2023/03/09 09:37:02;;;;;;;16.75;4.05;;;13.60;57.60;;;;;;5071886;28;20091;-66
2023/03/09 09:39:32;;;;;;;22.17;4.80;;;13.50;58.20;;;;;;5071726;28;20079;-67
2023/03/09 09:42:24;;;;;;;15.18;4.22;;;13.50;58.00;;;;;;5073355;28;20094;-66
2023/03/09 09:44:52;;;;;;;18.05;4.18;;;13.50;58.30;;;;;;5073707;28;20077;-63
2023/03/09 09:47:26;;;;;;;19.65;4.20;;;13.50;58.40;;;;;;5073118;28;20077;-66
2023/03/09 09:49:59;;;;;;;18.20;3.92;;;13.40;58.10;;;;;;5075126;28;20092;-66
2023/03/09 09:52:35;;;;;;;19.25;4.30;;;13.30;57.90;;;;;;5073282;28;20434;-65
2023/03/09 09:55:37;;;;;;;21.63;4.47;;;13.30;58.70;;;;;;5074191;28;21433;-65
2023/03/09 09:58:30;;;;;;;18.73;4.55;;;13.20;59.30;;;;;;5068237;28;20095;-65
2023/03/09 10:01:00;;;;;;;13.80;4.75;;;13.10;59.30;;;;;;5073124;28;20565;-63
2023/03/09 10:03:31;;;;;;;27.38;4.88;;;13.00;59.10;;;;;;5073398;28;20588;-64
2023/03/09 10:06:06;;;;;;;18.27;5.53;;;13.00;59.30;;;;;;5005195;28;1940053;-64
2023/03/09 10:09:02;;;;;;;17.98;4.85;;;13.10;59.70;;;;;;5074533;28;20138;-65
2023/03/09 10:11:41;;;;;;;13.38;5.05;;;13.10;59.40;;;;;;5064822;28;20096;-65
2023/03/09 10:14:16;;;;;;;19.40;5.25;;;13.10;59.70;;;;;;5075307;28;20175;-64
2023/03/09 10:17:08;;;;;;;20.63;5.43;;;13.00;60.20;;;;;;5077344;28;20073;-64
2023/03/09 10:19:40;;;;;;;28.17;5.30;;;12.90;60.30;;;;;;5038588;28;20081;-65
2023/03/09 10:22:13;;;;;;;28.27;6.53;;;12.70;60.00;;;;;;5074126;28;20582;-64
2023/03/09 10:24:51;;;;;;;23.55;6.15;;;12.80;60.60;;;;;;5074112;28;20154;-65
2023/03/09 10:27:42;;;;;;;46.92;7.57;;;12.80;60.40;;;;;;5074293;28;20551;-64
2023/03/09 10:30:36;;;;;;;23.65;6.22;;;12.80;61.20;;;;;;5072505;28;20138;-66
2023/03/09 10:33:18;;;;;;;33.28;6.47;;;12.90;60.90;;;;;;5072805;28;20077;-66
2023/03/09 10:36:01;;;;;;;33.40;7.13;;;12.90;60.10;;;;;;5073453;28;20136;-64
2023/03/09 10:38:29;;;;;;;42.15;6.80;;;12.90;60.70;;;;;;5074339;28;20118;-63
2023/03/09 10:40:57;;;;;;;36.58;7.55;;;12.90;60.10;;;;;;5074775;28;20534;-65
2023/03/09 10:43:35;;;;;;;28.13;6.22;;;12.80;60.10;;;;;;5075149;28;20117;-64
2023/03/09 10:46:23;;;;;;;27.08;6.63;;;12.90;60.90;;;;;;5071373;28;20069;-64
2023/03/09 10:49:09;;;;;;;35.47;7.18;;;12.80;60.60;;;;;;5073311;28;20438;-64
2023/03/09 10:51:42;;;;;;;30.40;7.00;;;12.80;61.20;;;;;;5072258;28;20092;-63
2023/03/09 10:54:18;;;;;;;30.02;7.18;;;12.80;60.90;;;;;;5073253;28;20591;-66
2023/03/09 10:56:46;;;;;;;24.60;6.18;;;12.80;60.70;;;;;;5073573;28;20081;-64
2023/03/09 10:59:14;;;;;;;28.02;6.90;;;12.70;60.50;;;;;;5075878;28;20171;-65
2023/03/09 11:01:43;;;;;;;28.60;6.50;;;12.60;60.60;;;;;;5072590;28;20089;-65
2023/03/09 11:04:30;;;;;;;29.23;7.05;;;12.60;61.20;;;;;;5071373;28;20072;-65
2023/03/09 11:07:17;;;;;;;23.00;6.35;;;12.70;61.30;;;;;;5072191;28;20116;-64
2023/03/09 11:09:44;;;;;;;24.60;6.13;;;12.70;60.90;;;;;;5072979;28;20115;-64
2023/03/09 11:12:22;;;;;;;23.50;6.35;;;12.70;60.70;;;;;;5073829;28;20073;-64
2023/03/09 11:14:59;;;;;;;20.42;5.85;;;12.70;60.50;;;;;;5073675;28;20064;-63
2023/03/09 11:17:44;;;;;;;20.63;6.47;;;12.70;60.50;;;;;;5072577;28;20548;-64
2023/03/09 11:20:32;;;;;;;23.45;6.72;;;12.60;62.00;;;;;;5072533;28;20623;-63
2023/03/09 11:23:07;;;;;;;27.63;5.38;;;12.50;60.60;;;;;;5071054;28;20077;-64
2023/03/09 11:25:53;;;;;;;26.08;5.95;;;12.50;61.80;;;;;;5073609;28;20557;-65
2023/03/09 11:28:44;;;;;;;15.05;4.25;;;12.50;60.90;;;;;;5073036;28;20085;-64
2023/03/09 11:31:14;;;;;;;18.55;4.70;;;12.60;60.50;;;;;;5071870;28;20133;-65
2023/03/09 11:33:41;;;;;;;12.30;4.45;;;12.60;59.50;;;;;;5072309;28;20077;-65
2023/03/09 11:36:14;;;;;;;15.48;4.20;;;12.70;59.20;;;;;;5071318;28;20164;-64
2023/03/09 11:38:43;;;;;;;17.38;4.32;;;12.60;60.00;;;;;;5073784;28;20065;-65
2023/03/09 11:41:18;;;;;;;9.15;3.47;;;12.50;59.40;;;;;;5074964;28;20114;-66
2023/03/09 11:43:50;;;;;;;15.50;4.10;;;12.50;59.60;;;;;;5072803;28;20068;-64
2023/03/09 11:46:18;;;;;;;15.93;3.85;;;12.50;59.30;;;;;;5073445;28;20092;-66
2023/03/09 11:49:07;;;;;;;17.77;3.45;;;12.40;59.30;;;;;;5071030;28;20085;-64
2023/03/09 11:51:45;;;;;;;11.00;3.05;;;12.50;59.60;;;;;;5073267;28;20069;-65
2023/03/09 11:54:38;;;;;;;8.95;3.40;;;12.50;59.00;;;;;;5071464;28;20096;-65
2023/03/09 11:57:15;;;;;;;16.80;3.63;;;12.40;58.90;;;;;;5066400;28;20517;-65
2023/03/09 11:59:53;;;;;;;;;;;12.40;59.20;;;;;;5074533;28;20069;-65
2023/03/09 12:02:57;;;;;;;12.77;3.47;;;12.40;59.00;;;;;;5071242;28;20000;-63
2023/03/09 12:05:28;;;;;;;7.60;3.50;;;12.50;59.40;;;;;;5070098;28;20112;-64
2023/03/09 12:08:04;;;;;;;14.75;4.32;;;12.40;59.30;;;;;;5074622;28;20524;-66
2023/03/09 12:10:47;;;;;;;17.90;5.68;;;12.30;61.10;;;;;;5070416;28;20085;-65
2023/03/09 12:13:24;;;;;;;21.63;5.80;;;12.20;61.80;;;;;;5070265;28;20096;-65
2023/03/09 12:16:08;;;;;;;25.23;5.88;;;12.20;61.50;;;;;;5072753;28;20069;-64
2023/03/09 12:18:54;;;;;;;13.90;4.80;;;12.10;61.00;;;;;;5072083;28;20120;-64
2023/03/09 12:21:30;;;;;;;23.05;4.65;;;12.10;61.30;;;;;;5073292;28;20122;-65
2023/03/09 12:23:57;;;;;;;15.50;4.57;;;12.10;61.40;;;;;;5072620;28;20084;-62
2023/03/09 12:26:32;;;;;;;17.85;4.65;;;12.00;61.80;;;;;;5071893;28;20429;-65
2023/03/09 12:29:18;;;;;;;12.80;4.68;;;12.10;61.50;;;;;;5071077;28;20529;-65
2023/03/09 12:32:05;;;;;;;10.45;3.65;;;12.20;60.30;;;;;;5069757;28;20176;-66
2023/03/09 12:34:40;;;;;;;17.98;4.47;;;12.20;59.90;;;;;;5071818;28;20080;-65
2023/03/09 12:37:30;;;;;;;13.93;4.22;;;12.20;59.80;;;;;;5070905;28;20598;-64
2023/03/09 12:40:19;;;;;;;10.32;4.22;;;12.30;59.60;;;;;;5071852;28;20081;-64
2023/03/09 12:42:48;;;;;;;21.45;4.07;;;12.30;59.90;;;;;;5072308;28;20080;-64
2023/03/09 12:45:17;;;;;;;15.95;4.43;;;12.30;60.10;;;;;;5073243;28;20080;-66
2023/03/09 12:47:48;;;;;;;17.83;5.38;;;12.30;60.50;;;;;;5071126;28;20449;-65
2023/03/09 12:50:24;;;;;;;16.10;5.25;;;12.30;61.20;;;;;;5071319;28;20081;-66
2023/03/09 12:53:04;;;;;;;19.35;6.22;;;12.30;61.20;;;;;;5073597;28;20410;-65
2023/03/09 12:55:37;;;;;;;20.52;5.47;;;12.20;62.10;;;;;;5072214;28;20195;-65